Disclaimer

Please do not use the information listed here in-flight or in-navigation, as they are not provided to us by the airports but are provided by volunteers, so they might be outdated.

Search


Regions


Airport information page

No radio frequency information is available.

Airport informations:
Latitude: 43° 54' 25.58" N
Longitude: 087° 28' 27.28" E
Elevation: 2125 feet - 648 meters
Operating hours: Remarks
Operating agency: Civil government, landing fees and diplomatic clearance may be required
Timezone: UTC+8
Fuel: N/A

Runway information:
07/25 - 11811 x 148 feet< - >3600 x 45 meters

Recent METARs:
ZWWW 122200Z 02001MPS 3000 -SN BR SCT011 OVC020 M11/M12 Q1035 NOSIG
ZWWW 122230Z 03002MPS 4000 -SN BR FEW011 BKN030 M11/M13 Q1035 NOSIG
ZWWW 122300Z 08003MPS 6000 -SN FEW011 BKN030 M13/M14 Q1036 NOSIG

Airport on the map: